Time;durP1;ratioP1;P1;durP2;ratioP2;P2;SDS_P1;SDS_P2;PMS_P1;PMS_P2;Temp;Humidity;BMP_temperature;BMP_pressure;BME280_temperature;BME280_humidity;BME280_pressure;Samples;Min_cycle;Max_cycle;Signal;HPM_P1;HPM_P2
2023/02/19 00:00:32;;;;;;;6.30;1.70;;;;;;;5.87;97.81;100070.92;107158;1272;22543;-77
2023/02/19 00:03:22;;;;;;;9.30;1.80;;;;;;;5.87;97.75;100066.58;107155;1272;22527;-77
2023/02/19 00:05:53;;;;;;;8.70;1.90;;;;;;;5.87;97.68;100066.89;107157;1272;22559;-77
2023/02/19 00:08:24;;;;;;;10.30;2.20;;;;;;;5.88;97.79;100062.67;107185;1272;25377;-77
2023/02/19 00:10:55;;;;;;;9.20;2.70;;;;;;;5.89;97.77;100062.41;107162;1265;22491;-77
2023/02/19 00:13:26;;;;;;;10.50;2.30;;;;;;;5.91;97.76;100058.36;107174;1266;24269;-76
2023/02/19 00:15:57;;;;;;;13.10;3.40;;;;;;;5.92;97.83;100055.23;107113;1272;22537;-77
2023/02/19 00:18:28;;;;;;;13.60;3.80;;;;;;;5.93;97.86;100056.21;107182;1265;22553;-76
2023/02/19 00:20:59;;;;;;;14.70;3.20;;;;;;;5.94;97.89;100056.91;107292;1272;22743;-78
2023/02/19 00:23:31;;;;;;;13.30;2.60;;;;;;;5.95;97.81;100060.02;107245;1272;22953;-77
2023/02/19 00:26:06;;;;;;;10.70;2.50;;;;;;;5.95;97.91;100060.67;107459;1249;22564;-77
2023/02/19 00:28:37;;;;;;;9.80;2.70;;;;;;;5.94;97.95;100062.14;107357;1272;26614;-78
2023/02/19 00:31:13;;;;;;;7.40;2.40;;;;;;;5.95;98.05;100055.03;107159;1272;25350;-76
2023/02/19 00:33:44;;;;;;;9.50;1.90;;;;;;;5.97;98.20;100049.70;107146;1272;22533;-77
2023/02/19 00:36:16;;;;;;;10.00;2.90;;;;;;;5.95;98.13;100042.69;107237;1272;25474;-77
2023/02/19 00:38:47;;;;;;;8.10;2.10;;;;;;;5.94;98.22;100040.22;107247;1269;25526;-78
2023/02/19 00:41:21;;;;;;;10.70;2.50;;;;;;;5.94;98.23;100039.88;107260;1272;22518;-76
2023/02/19 00:43:54;;;;;;;8.20;1.80;;;;;;;5.94;98.37;100035.53;107167;1267;22643;-77
2023/02/19 00:46:28;;;;;;;8.70;2.00;;;;;;;5.94;98.38;100032.30;107485;1266;22838;-76
2023/02/19 00:48:59;;;;;;;8.20;1.90;;;;;;;5.93;98.41;100028.52;107392;1272;23938;-78
2023/02/19 00:51:33;;;;;;;9.80;2.10;;;;;;;5.92;98.54;100031.95;107509;1256;22527;-76
2023/02/19 00:54:05;;;;;;;8.70;1.80;;;;;;;5.92;98.57;100026.41;107218;1265;22539;-77
2023/02/19 00:56:36;;;;;;;10.10;1.90;;;;;;;5.91;98.67;100023.92;107314;1268;22543;-76
2023/02/19 00:59:07;;;;;;;6.70;1.40;;;;;;;5.91;98.64;100024.49;107380;1265;22554;-77
2023/02/19 01:01:38;;;;;;;6.30;1.50;;;;;;;5.89;98.73;100021.55;107236;1261;22527;-76
2023/02/19 01:04:09;;;;;;;8.10;1.50;;;;;;;5.89;98.75;100019.32;107204;1267;22532;-76
2023/02/19 01:06:40;;;;;;;7.10;1.70;;;;;;;5.89;98.87;100020.30;107272;1270;24205;-76
2023/02/19 01:09:11;;;;;;;7.70;2.00;;;;;;;5.89;98.82;100019.17;107304;1271;24281;-77
2023/02/19 01:11:41;;;;;;;6.90;1.60;;;;;;;5.88;98.91;100015.55;107353;1272;22542;-76
2023/02/19 01:14:13;;;;;;;5.70;1.60;;;;;;;5.88;98.94;100008.91;107220;1272;22530;-77
2023/02/19 01:16:43;;;;;;;6.20;1.70;;;;;;;5.87;98.93;100006.98;107088;1272;24346;-77
2023/02/19 01:19:14;;;;;;;5.50;1.50;;;;;;;5.86;99.11;100003.37;107143;1257;22520;-77
2023/02/19 01:21:45;;;;;;;11.00;1.90;;;;;;;5.86;99.12;100006.38;107166;1272;22540;-77
2023/02/19 01:24:16;;;;;;;6.20;1.40;;;;;;;5.85;99.26;99999.52;107243;1271;25343;-76
2023/02/19 01:26:47;;;;;;;8.40;1.50;;;;;;;5.85;99.27;99996.45;107394;1272;24240;-77
2023/02/19 01:29:18;;;;;;;7.60;1.80;;;;;;;5.84;99.34;100001.38;107589;1271;22566;-76
2023/02/19 01:31:49;;;;;;;4.80;1.30;;;;;;;5.83;99.40;100001.88;107399;1257;24639;-77
2023/02/19 01:34:20;;;;;;;7.30;1.60;;;;;;;5.83;99.37;99997.05;107267;1262;22540;-77
2023/02/19 01:36:50;;;;;;;5.10;1.10;;;;;;;5.82;99.40;99993.98;108103;1272;24198;-78
2023/02/19 01:39:21;;;;;;;6.30;1.40;;;;;;;5.82;99.53;99992.09;108020;1269;24244;-78
2023/02/19 01:41:52;;;;;;;5.90;1.30;;;;;;;5.81;99.51;99986.98;107850;1270;22733;-78
2023/02/19 01:44:58;;;;;;;6.00;1.30;;;;;;;5.80;99.53;99982.20;107897;1266;22575;-78
2023/02/19 01:47:29;;;;;;;8.20;1.10;;;;;;;5.82;99.62;99981.59;107801;1272;23390;-78
2023/02/19 01:50:00;;;;;;;5.80;1.20;;;;;;;5.81;99.64;99981.67;107818;1270;22483;-79
2023/02/19 01:52:34;;;;;;;5.90;1.10;;;;;;;5.82;99.70;99980.38;108040;1270;22535;-79
2023/02/19 01:55:11;;;;;;;6.20;1.40;;;;;;;5.82;99.69;99983.96;108270;1271;22532;-79
2023/02/19 01:57:46;;;;;;;5.50;1.10;;;;;;;5.82;99.73;99981.44;107784;1273;22583;-77
2023/02/19 02:00:18;;;;;;;4.10;1.00;;;;;;;5.81;99.75;99973.92;107766;1273;22527;-78
2023/02/19 02:02:54;;;;;;;7.30;1.20;;;;;;;5.81;99.57;99967.16;107715;1273;22512;-77
2023/02/19 02:05:42;;;;;;;6.50;1.10;;;;;;;5.81;99.67;99960.97;107541;1272;25431;-77
2023/02/19 02:11:04;;;;;;;6.40;0.90;;;;;;;5.79;99.68;99949.48;107821;1273;22529;-78
2023/02/19 02:13:38;;;;;;;5.00;1.10;;;;;;;5.79;99.73;99937.84;107753;1264;22538;-78
2023/02/19 02:16:22;;;;;;;3.80;0.90;;;;;;;5.79;99.84;99932.55;107739;1271;25253;-78
2023/02/19 02:19:05;;;;;;;5.30;1.10;;;;;;;5.79;99.84;99934.68;107483;1273;24354;-78
2023/02/19 02:21:59;;;;;;;3.80;0.80;;;;;;;5.79;99.97;99935.16;107455;1273;22535;-78
2023/02/19 02:25:04;;;;;;;3.70;0.90;;;;;;;5.79;99.93;99936.36;107428;1271;22517;-78
2023/02/19 02:27:49;;;;;;;4.60;1.50;;;;;;;5.78;100.00;99933.12;107396;1269;23946;-79
2023/02/19 02:30:29;;;;;;;5.30;1.10;;;;;;;5.78;100.00;99931.92;107359;1273;22530;-77
2023/02/19 02:33:05;;;;;;;5.30;1.30;;;;;;;5.78;100.00;99929.98;107365;1273;22571;-77
2023/02/19 02:35:42;;;;;;;5.40;1.10;;;;;;;5.78;100.00;99929.24;107371;1270;22553;-77
2023/02/19 02:38:16;;;;;;;4.50;1.30;;;;;;;5.78;100.00;99927.73;107602;1271;24276;-77
2023/02/19 02:40:49;;;;;;;5.30;1.20;;;;;;;5.79;100.00;99925.04;107923;1268;23966;-77
2023/02/19 02:43:20;;;;;;;6.70;1.40;;;;;;;5.80;100.00;99917.00;108303;1270;22544;-77
2023/02/19 02:45:51;;;;;;;6.70;1.50;;;;;;;5.80;100.00;99911.05;107870;1272;22529;-78
2023/02/19 02:48:30;;;;;;;9.20;1.90;;;;;;;5.81;100.00;99908.14;107445;1268;22525;-78
2023/02/19 02:51:07;;;;;;;6.10;1.70;;;;;;;5.84;100.00;99911.71;107453;1267;23960;-78
2023/02/19 02:56:31;;;;;;;7.90;2.10;;;;;;;5.85;100.00;99907.58;107548;1270;25413;-78
2023/02/19 02:59:05;;;;;;;9.10;2.30;;;;;;;5.83;100.00;99904.77;107724;1273;22665;-78
2023/02/19 03:05:50;;;;;;;8.50;2.00;;;;;;;5.79;100.00;99898.05;107455;1267;23193;-78
2023/02/19 03:07:35;;;;;;;9.40;2.20;;;;;;;5.78;100.00;99895.70;107468;1268;22504;-78
2023/02/19 03:10:12;;;;;;;6.30;1.60;;;;;;;5.77;100.00;99893.45;107459;1270;24376;-78
2023/02/19 03:21:22;;;;;;;7.00;1.90;;;;;;;5.72;100.00;99891.03;108082;1270;22535;-80
2023/02/19 03:26:52;;;;;;;5.90;1.50;;;;;;;5.72;100.00;99892.28;108442;1272;25393;-79
2023/02/19 03:29:27;;;;;;;5.30;1.40;;;;;;;5.72;100.00;99890.94;108072;1270;25412;-79
2023/02/19 03:32:02;;;;;;;6.30;1.90;;;;;;;5.72;100.00;99887.13;108159;1265;23775;-82
2023/02/19 03:34:37;;;;;;;9.50;1.90;;;;;;;5.72;100.00;99891.80;108409;1271;22752;-80
2023/02/19 03:37:13;;;;;;;7.30;1.70;;;;;;;5.72;100.00;99889.43;108218;1266;25407;-80
2023/02/19 03:39:46;;;;;;;8.30;1.90;;;;;;;5.72;100.00;99879.22;108441;1272;22557;-80
2023/02/19 03:42:27;;;;;;;6.50;1.70;;;;;;;5.72;100.00;99872.56;108345;1270;23416;-80
2023/02/19 03:45:04;;;;;;;;;;;;;;;5.73;100.00;99864.70;107915;1265;22547;-78
2023/02/19 03:47:43;;;;;;;8.60;1.90;;;;;;;5.73;100.00;99854.97;108072;1266;22489;-79
2023/02/19 03:50:19;;;;;;;7.70;2.10;;;;;;;5.73;100.00;99855.91;108178;1257;22531;-78
2023/02/19 03:52:59;;;;;;;8.10;2.50;;;;;;;5.73;100.00;99852.66;108004;1267;24402;-79
2023/02/19 03:55:37;;;;;;;9.50;2.90;;;;;;;5.75;100.00;99845.05;108131;1267;22533;-79
2023/02/19 03:58:14;;;;;;;8.60;2.30;;;;;;;5.76;100.00;99849.63;108025;1272;22489;-78
2023/02/19 04:00:54;;;;;;;7.70;2.20;;;;;;;5.77;100.00;99851.11;108015;1270;22527;-79
2023/02/19 04:03:29;;;;;;;8.10;2.40;;;;;;;5.77;100.00;99856.23;108037;1267;22485;-78
2023/02/19 04:06:03;;;;;;;9.50;2.90;;;;;;;5.77;100.00;99860.83;108068;1272;22536;-78
2023/02/19 04:08:37;;;;;;;10.20;3.30;;;;;;;5.77;100.00;99866.13;108078;1269;22499;-78
2023/02/19 04:11:09;;;;;;;9.20;2.80;;;;;;;5.79;100.00;99864.41;107960;1273;22578;-78
2023/02/19 04:13:44;;;;;;;7.80;2.50;;;;;;;5.79;100.00;99859.73;107861;1270;22650;-78
2023/02/19 04:16:20;;;;;;;9.00;2.90;;;;;;;5.80;100.00;99856.77;108019;1265;24401;-78
2023/02/19 04:18:55;;;;;;;8.20;2.60;;;;;;;5.81;100.00;99858.17;107716;1265;24183;-78
2023/02/19 04:21:28;;;;;;;8.20;2.60;;;;;;;5.82;100.00;99858.99;107708;1270;23029;-78
2023/02/19 04:24:03;;;;;;;9.40;2.90;;;;;;;5.83;100.00;99854.84;107636;1270;22559;-78
2023/02/19 04:26:35;;;;;;;9.30;2.70;;;;;;;5.84;100.00;99853.85;107634;1270;22538;-78
2023/02/19 04:29:06;;;;;;;9.60;3.10;;;;;;;5.84;100.00;99849.58;107572;1273;22559;-78
2023/02/19 04:31:38;;;;;;;9.30;3.10;;;;;;;5.85;100.00;99853.60;107554;1272;24389;-77
2023/02/19 04:34:08;;;;;;;9.60;3.30;;;;;;;5.84;100.00;99852.52;107619;1267;22534;-77
2023/02/19 04:36:39;;;;;;;10.30;3.30;;;;;;;5.83;100.00;99850.15;107624;1272;24214;-78
2023/02/19 04:39:10;;;;;;;7.20;2.50;;;;;;;5.83;100.00;99843.90;107879;1272;22540;-78
2023/02/19 04:41:41;;;;;;;8.80;2.50;;;;;;;5.83;100.00;99843.13;108043;1270;22532;-79
2023/02/19 04:44:11;;;;;;;9.60;3.00;;;;;;;5.82;100.00;99846.38;108135;1270;22601;-79
2023/02/19 04:46:43;;;;;;;10.80;3.30;;;;;;;5.83;100.00;99848.75;108116;1267;24227;-79
2023/02/19 04:49:13;;;;;;;10.30;3.30;;;;;;;5.82;100.00;99847.98;108227;1272;22488;-80
2023/02/19 04:51:44;;;;;;;8.20;2.50;;;;;;;5.82;100.00;99845.19;108135;1272;22557;-78
2023/02/19 04:54:15;;;;;;;9.40;3.20;;;;;;;5.82;100.00;99840.13;108178;1267;24266;-80
2023/02/19 04:56:45;;;;;;;9.50;3.00;;;;;;;5.83;100.00;99835.61;108476;1271;23082;-79
2023/02/19 04:59:16;;;;;;;10.90;3.00;;;;;;;5.82;100.00;99836.73;108671;1272;22528;-80
2023/02/19 05:01:47;;;;;;;12.60;3.60;;;;;;;5.82;100.00;99835.23;108094;1267;22472;-79
2023/02/19 05:04:18;;;;;;;12.00;3.10;;;;;;;5.82;100.00;99834.67;108207;1272;24237;-79
2023/02/19 05:06:48;;;;;;;8.20;2.00;;;;;;;5.83;100.00;99828.56;108412;1272;22472;-79
2023/02/19 05:09:19;;;;;;;8.10;2.10;;;;;;;5.83;100.00;99823.58;108486;1267;22534;-79
2023/02/19 05:11:50;;;;;;;9.10;2.30;;;;;;;5.83;100.00;99822.47;108308;1267;22546;-78
2023/02/19 05:14:21;;;;;;;7.00;1.90;;;;;;;5.82;100.00;99822.49;108041;1272;22542;-78
2023/02/19 05:16:51;;;;;;;8.20;2.30;;;;;;;5.82;100.00;99823.30;107926;1269;22531;-80
2023/02/19 05:19:22;;;;;;;8.50;2.60;;;;;;;5.81;100.00;99825.15;107955;1272;22796;-78
2023/02/19 05:21:53;;;;;;;8.20;2.50;;;;;;;5.81;100.00;99825.64;107828;1272;22550;-78
2023/02/19 05:24:25;;;;;;;9.50;2.10;;;;;;;5.81;100.00;99820.81;108080;1268;22529;-77
2023/02/19 05:26:56;;;;;;;10.30;2.70;;;;;;;5.81;100.00;99820.95;108144;1266;23096;-78
2023/02/19 05:29:27;;;;;;;10.80;2.60;;;;;;;5.81;100.00;99822.07;108023;1265;22543;-79
2023/02/19 05:31:57;;;;;;;8.20;2.20;;;;;;;5.80;100.00;99821.75;108418;1269;22644;-78
2023/02/19 05:34:28;;;;;;;10.10;2.70;;;;;;;5.80;100.00;99823.59;108070;1266;22544;-78
2023/02/19 05:36:59;;;;;;;8.40;2.10;;;;;;;5.80;100.00;99826.30;108021;1272;23735;-78
2023/02/19 05:39:30;;;;;;;10.30;2.80;;;;;;;5.81;100.00;99823.18;108035;1271;24216;-78
2023/02/19 05:42:00;;;;;;;11.90;2.60;;;;;;;5.81;100.00;99819.05;108184;1270;22547;-78
2023/02/19 05:44:31;;;;;;;10.90;3.00;;;;;;;5.81;100.00;99819.11;108160;1257;22823;-79
2023/02/19 05:47:02;;;;;;;9.10;2.50;;;;;;;5.82;100.00;99817.05;108195;1271;22496;-80
2023/02/19 05:49:32;;;;;;;10.50;3.00;;;;;;;5.82;100.00;99812.13;107934;1272;24193;-78
2023/02/19 05:52:03;;;;;;;9.60;2.90;;;;;;;5.83;100.00;99816.45;107453;1271;22601;-78
2023/02/19 05:54:34;;;;;;;11.00;2.80;;;;;;;5.84;100.00;99818.48;108208;1271;22479;-78
2023/02/19 05:57:05;;;;;;;11.30;2.90;;;;;;;5.84;100.00;99820.30;107895;1265;22530;-78
2023/02/19 05:59:35;;;;;;;10.80;2.80;;;;;;;5.83;100.00;99813.59;107538;1271;22489;-78
2023/02/19 06:02:06;;;;;;;11.10;3.30;;;;;;;5.84;100.00;99814.59;107290;1267;22532;-78
2023/02/19 06:04:37;;;;;;;11.40;3.60;;;;;;;5.86;100.00;99814.77;107271;1272;25227;-78
2023/02/19 06:07:08;;;;;;;9.70;2.20;;;;;;;5.85;100.00;99819.30;107144;1266;22567;-78
2023/02/19 06:09:38;;;;;;;10.40;3.10;;;;;;;5.85;100.00;99816.77;107149;1272;25333;-78
2023/02/19 06:12:09;;;;;;;8.50;3.20;;;;;;;5.84;100.00;99814.67;107228;1265;24755;-78
2023/02/19 06:14:40;;;;;;;11.20;3.00;;;;;;;5.84;100.00;99817.38;107225;1270;22970;-78
2023/02/19 06:17:10;;;;;;;10.00;2.50;;;;;;;5.83;100.00;99817.39;107885;1271;24355;-78
2023/02/19 06:19:42;;;;;;;9.60;2.10;;;;;;;5.82;100.00;99819.73;107803;1272;25313;-78
2023/02/19 06:22:15;;;;;;;10.20;2.80;;;;;;;5.80;100.00;99822.95;107647;1265;22537;-78
2023/02/19 06:24:48;;;;;;;9.90;2.80;;;;;;;5.79;100.00;99824.74;107471;1272;22699;-78
2023/02/19 06:27:19;;;;;;;9.80;1.90;;;;;;;5.79;100.00;99827.78;107686;1272;23912;-78
2023/02/19 06:29:50;;;;;;;5.70;1.70;;;;;;;5.77;100.00;99831.40;107855;1265;25407;-78
2023/02/19 06:32:21;;;;;;;9.50;2.10;;;;;;;5.75;100.00;99836.36;107825;1270;22528;-78
2023/02/19 06:34:51;;;;;;;6.90;2.00;;;;;;;5.72;100.00;99836.97;107719;1271;24251;-78
2023/02/19 06:37:22;;;;;;;7.30;1.90;;;;;;;5.69;100.00;99839.54;107480;1260;22747;-78
2023/02/19 06:39:53;;;;;;;9.80;2.20;;;;;;;5.65;100.00;99840.08;107529;1267;25409;-77
2023/02/19 06:42:24;;;;;;;6.50;1.80;;;;;;;5.64;100.00;99842.98;107272;1265;22670;-76
2023/02/19 06:44:55;;;;;;;6.20;1.70;;;;;;;5.61;100.00;99845.87;107117;1267;22966;-76
2023/02/19 06:47:26;;;;;;;7.20;1.60;;;;;;;5.57;100.00;99849.11;107010;1272;22558;-75
2023/02/19 06:49:57;;;;;;;5.10;1.60;;;;;;;5.55;100.00;99852.20;107099;1265;22574;-76
2023/02/19 06:52:28;;;;;;;4.50;1.30;;;;;;;5.53;100.00;99855.77;107163;1266;22564;-76
2023/02/19 06:54:58;;;;;;;7.40;1.70;;;;;;;5.52;100.00;99858.02;107219;1272;26573;-76
2023/02/19 06:57:29;;;;;;;4.10;0.90;;;;;;;5.51;100.00;99858.98;107221;1272;22667;-77
2023/02/19 07:00:00;;;;;;;4.20;0.90;;;;;;;5.45;100.00;99862.80;107149;1265;25275;-77
2023/02/19 07:02:31;;;;;;;3.80;1.00;;;;;;;5.38;100.00;99854.21;107234;1265;25281;-78
2023/02/19 07:05:01;;;;;;;5.70;1.10;;;;;;;5.35;100.00;99856.20;107448;1265;24531;-77
2023/02/19 07:07:32;;;;;;;5.20;1.00;;;;;;;5.33;100.00;99861.80;107347;1267;24195;-77
2023/02/19 07:10:03;;;;;;;5.30;1.40;;;;;;;5.30;100.00;99864.86;107098;1272;22532;-77
2023/02/19 07:12:34;;;;;;;5.00;1.10;;;;;;;5.27;100.00;99868.76;107089;1272;22653;-77
2023/02/19 07:15:05;;;;;;;6.70;1.50;;;;;;;5.22;100.00;99873.77;107282;1270;22551;-77
2023/02/19 07:17:37;;;;;;;4.50;1.30;;;;;;;5.19;100.00;99874.60;107243;1271;22509;-78
2023/02/19 07:20:08;;;;;;;7.20;1.50;;;;;;;5.12;100.00;99876.19;107150;1265;22539;-78
2023/02/19 07:22:39;;;;;;;9.10;2.10;;;;;;;5.09;100.00;99881.45;107722;1271;26502;-78
2023/02/19 07:25:09;;;;;;;6.20;1.60;;;;;;;5.08;100.00;99890.35;107326;1266;23420;-78
2023/02/19 07:27:41;;;;;;;5.50;1.20;;;;;;;5.04;100.00;99897.98;107193;1265;22571;-78
2023/02/19 07:30:13;;;;;;;5.40;1.30;;;;;;;4.98;100.00;99904.36;107141;1271;22540;-78
2023/02/19 07:32:44;;;;;;;7.40;1.80;;;;;;;4.95;100.00;99909.08;107403;1264;23013;-78
2023/02/19 07:35:15;;;;;;;10.40;2.30;;;;;;;4.89;100.00;99915.45;108032;1268;25398;-79
2023/02/19 07:37:45;;;;;;;14.50;2.70;;;;;;;4.85;100.00;99919.27;107518;1265;22534;-79
2023/02/19 07:40:17;;;;;;;7.90;1.80;;;;;;;4.80;100.00;99929.66;107315;1265;22520;-77
2023/02/19 07:42:47;;;;;;;4.80;1.00;;;;;;;4.72;100.00;99931.18;107329;1264;25349;-78
2023/02/19 07:45:18;;;;;;;5.40;0.70;;;;;;;4.65;100.00;99934.92;107181;1271;25227;-76
2023/02/19 07:47:49;;;;;;;2.80;0.70;;;;;;;4.58;100.00;99935.16;107187;1265;22539;-77
2023/02/19 07:50:20;;;;;;;2.90;0.70;;;;;;;4.50;99.93;99944.35;107125;1272;22570;-76
2023/02/19 07:52:51;;;;;;;3.60;0.70;;;;;;;4.42;99.94;99944.35;107056;1272;24273;-76
2023/02/19 07:55:21;;;;;;;3.70;0.80;;;;;;;4.38;100.00;99948.61;107178;1272;22540;-76
2023/02/19 07:57:52;;;;;;;3.10;0.70;;;;;;;4.33;100.00;99955.10;107115;1272;25273;-77
2023/02/19 08:00:24;;;;;;;3.50;0.50;;;;;;;4.31;100.00;99962.04;107339;1271;22532;-76
2023/02/19 08:03:01;;;;;;;4.90;0.40;;;;;;;4.26;99.73;99970.23;107303;1264;24476;-76
2023/02/19 08:05:34;;;;;;;2.20;0.20;;;;;;;4.18;99.21;99973.73;107318;1269;24280;-76
2023/02/19 08:08:07;;;;;;;5.00;0.60;;;;;;;4.09;98.72;99984.81;107251;1256;22538;-76
2023/02/19 08:13:29;;;;;;;10.10;0.80;;;;;;;3.89;98.16;99985.42;107105;1264;22612;-76
2023/02/19 08:16:14;;;;;;;8.00;1.10;;;;;;;3.79;98.08;99986.11;107229;1272;24365;-76
2023/02/19 08:18:45;;;;;;;5.00;0.60;;;;;;;3.70;98.25;99990.02;107181;1271;25315;-76
2023/02/19 08:21:19;;;;;;;6.90;0.80;;;;;;;3.62;98.24;99988.67;107542;1258;23499;-76
2023/02/19 08:23:50;;;;;;;6.60;0.70;;;;;;;3.56;98.35;99994.89;107451;1265;22587;-76
2023/02/19 08:26:21;;;;;;;9.80;1.00;;;;;;;3.54;98.70;100003.27;107368;1265;22544;-78
2023/02/19 08:28:51;;;;;;;7.90;0.70;;;;;;;3.51;98.99;100008.69;107387;1270;22527;-77
2023/02/19 08:31:22;;;;;;;6.80;0.70;;;;;;;3.48;98.79;100012.30;107289;1265;22564;-77
2023/02/19 08:33:53;;;;;;;10.00;1.40;;;;;;;3.44;98.83;100018.42;107306;1264;24239;-76
2023/02/19 08:36:24;;;;;;;9.00;1.00;;;;;;;3.42;99.05;100025.80;107238;1264;26516;-76
2023/02/19 08:38:54;;;;;;;7.10;1.00;;;;;;;3.42;99.30;100029.81;107318;1271;25398;-77
2023/02/19 08:41:25;;;;;;;9.00;0.70;;;;;;;3.40;99.15;100034.79;107321;1270;22527;-77
2023/02/19 08:43:56;;;;;;;8.70;1.10;;;;;;;3.37;99.11;100036.36;107341;1266;25507;-77
2023/02/19 08:46:27;;;;;;;5.10;0.70;;;;;;;3.36;99.22;100037.10;107292;1258;22657;-77
2023/02/19 08:48:57;;;;;;;4.40;0.80;;;;;;;3.33;98.81;100041.52;107333;1271;25346;-76
2023/02/19 08:51:28;;;;;;;4.90;0.60;;;;;;;3.29;98.87;100037.98;107280;1262;22562;-77
2023/02/19 08:54:01;;;;;;;6.60;0.80;;;;;;;3.26;98.88;100048.77;107038;1270;201599;-77
2023/02/19 08:56:32;;;;;;;4.30;0.50;;;;;;;3.22;98.91;100053.70;107042;1265;24196;-77
2023/02/19 08:59:03;;;;;;;5.70;0.80;;;;;;;3.18;98.86;100055.92;107108;1272;22534;-77
2023/02/19 09:01:34;;;;;;;6.70;0.70;;;;;;;3.15;98.93;100054.27;107303;1271;25372;-78
2023/02/19 09:04:05;;;;;;;6.60;0.60;;;;;;;3.14;99.01;100055.41;107557;1272;22524;-79
2023/02/19 09:06:35;;;;;;;4.90;0.50;;;;;;;3.10;98.81;100052.75;107750;1271;22644;-79
2023/02/19 09:09:06;;;;;;;7.40;0.70;;;;;;;3.07;99.11;100062.11;109556;1260;23538;-80
2023/02/19 09:11:40;;;;;;;5.30;0.80;;;;;;;3.09;99.52;100067.58;110059;1269;22493;-80
2023/02/19 09:14:11;;;;;;;7.20;0.60;;;;;;;3.10;99.48;100071.57;108014;1265;22756;-79
2023/02/19 09:16:41;;;;;;;7.80;0.80;;;;;;;3.11;99.42;100068.23;107882;1271;26495;-79
2023/02/19 09:19:12;;;;;;;9.00;1.00;;;;;;;3.10;99.41;100067.55;107831;1265;22491;-79
2023/02/19 09:21:43;;;;;;;7.30;1.20;;;;;;;3.11;99.51;100077.86;107517;1271;23953;-78
2023/02/19 09:24:14;;;;;;;6.00;1.00;;;;;;;3.12;99.63;100085.95;107383;1260;22564;-77
2023/02/19 09:26:45;;;;;;;7.50;0.90;;;;;;;3.12;99.72;100090.73;107467;1271;22527;-77
2023/02/19 09:29:16;;;;;;;6.60;0.70;;;;;;;3.13;99.84;100087.02;107222;1270;22538;-77
2023/02/19 09:31:47;;;;;;;4.90;0.70;;;;;;;3.15;99.72;100095.10;107384;1268;22534;-77
2023/02/19 09:34:18;;;;;;;3.70;0.60;;;;;;;3.16;99.48;100100.12;107396;1266;24286;-77
2023/02/19 09:36:50;;;;;;;7.60;0.60;;;;;;;3.17;99.56;100109.30;107292;1265;22531;-76
2023/02/19 09:39:21;;;;;;;4.00;0.50;;;;;;;3.19;99.58;100110.98;107322;1270;22577;-77
2023/02/19 09:41:55;;;;;;;4.50;0.50;;;;;;;3.21;99.74;100115.28;107483;1271;22584;-77
2023/02/19 09:44:30;;;;;;;4.70;0.60;;;;;;;3.23;99.58;100120.73;107669;1264;22618;-77
2023/02/19 09:47:03;;;;;;;4.50;0.70;;;;;;;3.27;99.88;100112.52;107676;1261;22807;-78
2023/02/19 09:49:39;;;;;;;8.10;1.20;;;;;;;3.35;100.00;100113.83;107790;1269;22626;-81
2023/02/19 09:52:15;;;;;;;4.20;0.80;;;;;;;3.43;100.00;100116.62;108451;1268;24231;-80
2023/02/19 09:54:47;;;;;;;5.80;0.80;;;;;;;3.48;99.96;100115.38;108261;1271;22543;-79
2023/02/19 09:57:21;;;;;;;7.30;0.70;;;;;;;3.51;99.62;100118.32;107938;1256;22527;-79
2023/02/19 09:59:53;;;;;;;4.20;0.80;;;;;;;3.55;99.75;100117.86;107850;1259;22530;-77
2023/02/19 10:02:26;;;;;;;7.60;1.30;;;;;;;3.61;99.68;100129.00;107618;1260;25343;-76
2023/02/19 10:04:57;;;;;;;6.00;1.00;;;;;;;3.66;99.76;100132.02;107564;1265;24240;-76
2023/02/19 10:07:38;;;;;;;7.70;1.00;;;;;;;3.71;99.51;100135.52;107453;1265;22642;-76
2023/02/19 10:10:25;;;;;;;9.70;1.40;;;;;;;3.76;99.83;100143.98;107824;1268;25400;-76
2023/02/19 10:13:01;;;;;;;19.00;3.60;;;;;;;3.83;100.00;100149.14;107211;1271;25472;-76
2023/02/19 10:15:36;;;;;;;9.10;1.20;;;;;;;3.90;99.68;100157.86;107313;1263;22527;-76
2023/02/19 10:18:08;;;;;;;6.10;1.00;;;;;;;3.94;98.96;100163.14;107437;1265;22555;-75
2023/02/19 10:20:39;;;;;;;9.40;0.80;;;;;;;3.97;98.98;100162.02;107477;1258;22534;-76
2023/02/19 10:23:14;;;;;;;8.30;0.70;;;;;;;3.99;97.98;100175.13;107272;1267;24276;-76
2023/02/19 10:25:49;;;;;;;5.10;0.50;;;;;;;4.00;97.45;100179.13;107355;1271;24246;-76
2023/02/19 10:28:22;;;;;;;4.40;0.60;;;;;;;3.98;97.14;100185.09;107360;1265;22545;-76
2023/02/19 10:30:56;;;;;;;3.00;0.60;;;;;;;3.97;97.39;100190.81;107385;1268;24262;-76
2023/02/19 10:33:27;;;;;;;5.30;0.50;;;;;;;3.98;96.53;100196.96;107466;1268;22614;-77
2023/02/19 10:36:02;;;;;;;3.30;0.50;;;;;;;3.95;96.00;100201.52;107364;1265;23219;-76
2023/02/19 10:38:36;;;;;;;9.00;1.10;;;;;;;3.95;97.05;100201.27;107244;1265;22530;-76
2023/02/19 10:41:12;;;;;;;9.80;0.60;;;;;;;3.96;96.97;100203.00;107324;1265;22529;-76
2023/02/19 10:43:51;;;;;;;5.20;0.50;;;;;;;3.97;96.49;100206.28;107357;1265;22524;-75
2023/02/19 10:46:25;;;;;;;4.20;0.30;;;;;;;4.02;96.99;100210.27;107283;1265;24534;-75
2023/02/19 10:48:58;;;;;;;10.90;0.70;;;;;;;4.01;94.74;100217.00;107145;1265;22563;-76
2023/02/19 10:51:35;;;;;;;3.70;0.60;;;;;;;4.01;95.69;100221.34;107528;1264;25335;-77
2023/02/19 10:54:16;;;;;;;4.70;0.50;;;;;;;4.01;95.57;100219.67;107399;1265;22527;-76
2023/02/19 10:56:47;;;;;;;5.50;0.50;;;;;;;4.03;96.02;100218.20;107242;1269;22567;-75
2023/02/19 10:59:26;;;;;;;7.70;0.50;;;;;;;4.05;96.39;100224.29;107358;1271;24191;-76
2023/02/19 11:01:59;;;;;;;4.50;0.50;;;;;;;4.08;95.45;100227.40;107316;1265;25353;-76
2023/02/19 11:04:34;;;;;;;3.40;0.30;;;;;;;4.09;95.97;100234.30;107649;1259;22573;-76
2023/02/19 11:07:11;;;;;;;4.80;0.40;;;;;;;4.10;94.56;100235.45;107535;1271;22527;-74
2023/02/19 11:09:45;;;;;;;4.80;0.50;;;;;;;4.14;95.64;100244.06;107573;1271;22527;-78
2023/02/19 11:12:25;;;;;;;3.20;0.30;;;;;;;4.17;93.96;100249.66;107708;1271;26674;-77
2023/02/19 11:14:56;;;;;;;7.20;0.50;;;;;;;4.15;92.29;100247.34;107526;1271;22531;-76
2023/02/19 11:17:30;;;;;;;3.30;0.30;;;;;;;4.13;91.96;100249.27;107482;1269;22812;-78
2023/02/19 11:20:07;;;;;;;4.50;0.60;;;;;;;4.11;91.73;100254.54;107340;1265;24355;-76
2023/02/19 11:22:41;;;;;;;1.80;0.40;;;;;;;4.10;93.09;100250.54;107339;1271;25446;-76
2023/02/19 11:25:24;;;;;;;10.30;0.40;;;;;;;4.12;92.26;100261.38;107244;1271;22633;-76
2023/02/19 11:28:05;;;;;;;4.70;0.50;;;;;;;4.13;91.92;100258.60;107179;1271;22530;-76
2023/02/19 11:30:41;;;;;;;2.40;0.40;;;;;;;4.14;92.03;100260.38;107332;1271;22530;-75
2023/02/19 11:33:27;;;;;;;4.40;0.50;;;;;;;4.14;91.11;100257.88;107588;1268;22540;-75
2023/02/19 11:36:15;;;;;;;7.70;0.60;;;;;;;4.10;91.49;100260.00;107349;1271;22515;-76
2023/02/19 11:38:46;;;;;;;6.40;0.60;;;;;;;4.06;92.45;100264.53;107355;1271;25332;-75
2023/02/19 11:41:28;;;;;;;7.30;0.50;;;;;;;4.00;92.75;100260.89;107263;1271;22546;-76
2023/02/19 11:44:14;;;;;;;4.90;0.50;;;;;;;3.97;93.85;100259.40;107399;1271;24172;-75
2023/02/19 11:46:56;;;;;;;7.00;0.70;;;;;;;3.95;93.80;100261.73;107438;1271;22527;-75
2023/02/19 11:49:40;;;;;;;6.90;0.50;;;;;;;3.91;92.43;100261.37;107321;1257;22530;-75
2023/02/19 11:52:26;;;;;;;5.00;0.50;;;;;;;3.89;91.54;100264.90;107379;1265;23023;-76
2023/02/19 11:55:05;;;;;;;4.20;0.70;;;;;;;3.86;91.41;100259.14;107446;1271;25476;-76
2023/02/19 11:57:47;;;;;;;4.30;0.80;;;;;;;3.83;91.91;100265.66;107403;1270;22518;-78
2023/02/19 12:00:26;;;;;;;5.20;0.70;;;;;;;3.82;91.45;100266.09;107721;1265;22527;-77
2023/02/19 12:03:23;;;;;;;7.40;0.90;;;;;;;3.84;91.67;100263.67;107524;1265;24189;-77
2023/02/19 12:06:09;;;;;;;7.30;1.00;;;;;;;3.89;91.67;100260.07;107445;1265;22518;-75
2023/02/19 12:09:07;;;;;;;12.10;0.80;;;;;;;3.99;92.88;100258.17;107330;1265;24260;-74
2023/02/19 12:11:54;;;;;;;3.00;0.80;;;;;;;4.06;91.58;100265.48;107291;1265;25342;-75
2023/02/19 12:14:55;;;;;;;6.50;0.60;;;;;;;4.08;88.63;100272.60;107328;1271;22546;-75
2023/02/19 12:17:32;;;;;;;;;;;;;;;4.13;88.42;100274.63;107363;1265;22551;-75